createdAt,value
2023-03-04T00:01:18.017Z,12.35
2023-03-04T00:04:04.214Z,12.75
2023-03-04T00:06:50.177Z,12.32
2023-03-04T00:09:36.494Z,13.00
2023-03-04T00:12:22.358Z,15.27
2023-03-04T00:15:08.736Z,15.20
2023-03-04T00:17:54.673Z,14.90
2023-03-04T00:20:40.959Z,15.05
2023-03-04T00:23:27.394Z,17.05
2023-03-04T00:26:13.627Z,15.98
2023-03-04T00:29:01.768Z,14.65
2023-03-04T00:31:47.704Z,15.38
2023-03-04T00:34:33.512Z,14.43
2023-03-04T00:37:19.386Z,13.30
2023-03-04T00:40:06.126Z,14.02
2023-03-04T00:42:52.437Z,13.90
2023-03-04T00:45:38.277Z,13.20
2023-03-04T00:48:24.060Z,14.13
2023-03-04T00:51:09.976Z,13.88
2023-03-04T00:53:55.678Z,13.75
2023-03-04T00:56:41.763Z,13.75
2023-03-04T00:59:27.719Z,12.88
2023-03-04T01:02:13.641Z,13.75
2023-03-04T01:04:59.586Z,11.32
2023-03-04T01:07:45.488Z,12.05
2023-03-04T01:10:31.823Z,13.52
2023-03-04T01:13:18.506Z,14.27
2023-03-04T01:16:05.225Z,14.45
2023-03-04T01:18:51.374Z,16.30
2023-03-04T01:21:37.230Z,15.07
2023-03-04T01:24:23.037Z,14.07
2023-03-04T01:27:09.001Z,13.65
2023-03-04T01:29:54.878Z,13.82
2023-03-04T01:32:41.696Z,14.88
2023-03-04T01:35:28.647Z,15.32
2023-03-04T01:38:16.580Z,14.68
2023-03-04T01:41:02.555Z,14.20
2023-03-04T01:43:48.662Z,23.63
2023-03-04T01:46:34.636Z,25.17
2023-03-04T01:49:20.988Z,21.67
2023-03-04T01:52:11.470Z,18.40
2023-03-04T01:54:57.793Z,18.73
2023-03-04T01:57:43.481Z,18.15
2023-03-04T02:00:32.468Z,19.40
2023-03-04T02:03:22.225Z,18.30
2023-03-04T02:06:08.650Z,17.65
2023-03-04T02:08:54.400Z,16.30
2023-03-04T02:11:40.415Z,15.52
2023-03-04T02:14:26.401Z,17.00
2023-03-04T02:17:13.254Z,16.30
2023-03-04T02:20:25.935Z,15.27
2023-03-04T02:23:17.906Z,14.85
2023-03-04T02:26:26.074Z,15.53
2023-03-04T02:29:14.302Z,17.38
2023-03-04T02:32:00.356Z,19.33
2023-03-04T02:34:48.927Z,21.17
2023-03-04T02:37:34.611Z,25.15
2023-03-04T02:40:28.311Z,24.88
2023-03-04T02:43:14.697Z,24.80
2023-03-04T02:46:00.804Z,22.92
2023-03-04T02:48:47.082Z,19.05
2023-03-04T02:51:32.937Z,17.45
2023-03-04T02:54:21.057Z,15.73
2023-03-04T02:57:09.587Z,13.98
2023-03-04T02:59:57.782Z,13.98
2023-03-04T03:02:46.675Z,14.40
2023-03-04T03:05:35.310Z,14.63
2023-03-04T03:08:22.219Z,13.18
2023-03-04T03:11:09.412Z,12.65
2023-03-04T03:13:57.189Z,13.32
2023-03-04T03:16:43.582Z,13.27
2023-03-04T03:19:30.404Z,13.30
2023-03-04T03:22:16.995Z,12.23
2023-03-04T03:25:03.566Z,14.45
2023-03-04T03:27:49.409Z,12.50
2023-03-04T03:30:36.234Z,13.20
2023-03-04T03:33:24.807Z,12.52
2023-03-04T03:36:10.598Z,13.48
2023-03-04T03:38:57.840Z,14.02
2023-03-04T03:41:44.050Z,13.35
2023-03-04T03:44:30.148Z,12.98
2023-03-04T03:47:21.089Z,13.05
2023-03-04T03:50:07.977Z,14.18
2023-03-04T03:52:54.122Z,13.77
2023-03-04T03:55:40.014Z,13.32
2023-03-04T03:58:27.057Z,13.52
2023-03-04T04:01:13.250Z,12.95
2023-03-04T04:03:59.483Z,12.52
2023-03-04T04:06:45.386Z,12.98
2023-03-04T04:09:31.179Z,11.02
2023-03-04T04:12:18.981Z,9.52
2023-03-04T04:15:05.419Z,10.10
2023-03-04T04:17:52.009Z,9.25
2023-03-04T04:20:38.109Z,8.85
2023-03-04T04:23:24.028Z,10.05
2023-03-04T04:26:09.762Z,9.07
2023-03-04T04:28:55.659Z,7.93
2023-03-04T04:31:41.817Z,7.18
2023-03-04T04:34:28.060Z,7.07
2023-03-04T04:37:14.029Z,7.30
2023-03-04T04:39:59.839Z,7.10
2023-03-04T04:42:45.625Z,7.35
2023-03-04T04:45:31.566Z,6.75
2023-03-04T04:48:17.387Z,6.68
2023-03-04T04:51:03.283Z,7.03
2023-03-04T04:53:49.285Z,6.40
2023-03-04T04:56:35.325Z,6.97
2023-03-04T04:59:21.434Z,6.40
2023-03-04T05:02:07.357Z,6.93
2023-03-04T05:04:53.226Z,7.38
2023-03-04T05:07:40.548Z,8.32
2023-03-04T05:10:26.670Z,7.60
2023-03-04T05:13:12.625Z,7.45
2023-03-04T05:15:58.856Z,9.23
2023-03-04T05:18:45.368Z,7.18
2023-03-04T05:21:31.201Z,6.70
2023-03-04T05:24:17.155Z,7.30
2023-03-04T05:27:03.227Z,7.50
2023-03-04T05:29:50.321Z,10.93
2023-03-04T05:32:36.183Z,13.70
2023-03-04T05:35:22.174Z,11.80
2023-03-04T05:38:10.320Z,7.97
2023-03-04T05:41:01.435Z,8.10
2023-03-04T05:43:47.619Z,7.43
2023-03-04T05:46:34.017Z,6.40
2023-03-04T05:49:20.533Z,7.68
2023-03-04T05:52:06.581Z,7.40
2023-03-04T05:54:52.399Z,6.18
2023-03-04T05:57:38.286Z,6.85
2023-03-04T06:00:24.706Z,7.20
2023-03-04T06:03:22.706Z,7.28
2023-03-04T06:06:09.663Z,6.70
2023-03-04T06:08:55.781Z,7.20
2023-03-04T06:11:41.910Z,6.95
2023-03-04T06:14:27.883Z,7.18
2023-03-04T06:17:14.009Z,6.95
2023-03-04T06:20:00.103Z,7.03
2023-03-04T06:22:46.190Z,6.97
2023-03-04T06:25:32.405Z,7.57
2023-03-04T06:28:18.210Z,7.53
2023-03-04T06:31:04.218Z,7.82
2023-03-04T06:33:50.058Z,6.65
2023-03-04T06:36:35.816Z,7.65
2023-03-04T06:39:21.873Z,7.55
2023-03-04T06:42:08.697Z,8.27
2023-03-04T06:44:54.488Z,7.95
2023-03-04T06:47:40.636Z,7.05
2023-03-04T06:50:26.690Z,9.30
2023-03-04T06:53:12.556Z,8.15
2023-03-04T06:55:58.472Z,8.73
2023-03-04T06:58:44.985Z,9.15
2023-03-04T07:01:31.236Z,7.70
2023-03-04T07:04:17.244Z,8.77
2023-03-04T07:07:02.940Z,8.88
2023-03-04T07:09:48.862Z,10.05
2023-03-04T07:12:34.610Z,9.35
2023-03-04T07:15:20.444Z,8.80
2023-03-04T07:18:06.433Z,10.35
2023-03-04T07:20:53.265Z,9.48
2023-03-04T07:23:39.887Z,9.55
2023-03-04T07:26:26.100Z,9.90
2023-03-04T07:29:13.161Z,9.73
2023-03-04T07:31:59.626Z,9.77
2023-03-04T07:34:45.930Z,10.10
2023-03-04T07:37:31.940Z,10.27
2023-03-04T07:40:17.898Z,10.02
2023-03-04T07:43:04.757Z,10.27
2023-03-04T07:45:51.075Z,10.15
2023-03-04T07:48:37.564Z,11.25
2023-03-04T07:51:25.688Z,10.25
2023-03-04T07:54:11.760Z,10.98
2023-03-04T07:56:57.800Z,11.20
2023-03-04T07:59:43.743Z,10.57
2023-03-04T08:02:29.574Z,10.60
2023-03-04T08:05:15.591Z,10.52
2023-03-04T08:08:01.788Z,10.43
2023-03-04T08:10:47.676Z,10.55
2023-03-04T08:13:34.493Z,10.25
2023-03-04T08:16:22.194Z,11.18
2023-03-04T08:19:08.233Z,10.68
2023-03-04T08:21:56.344Z,11.07
2023-03-04T08:24:42.297Z,9.48
2023-03-04T08:27:28.475Z,9.65
2023-03-04T08:30:14.464Z,11.02
2023-03-04T08:33:02.894Z,10.65
2023-03-04T08:35:49.245Z,10.80
2023-03-04T08:38:35.638Z,11.10
2023-03-04T08:41:22.847Z,9.77
2023-03-04T08:44:10.403Z,9.07
2023-03-04T08:46:56.671Z,8.35
2023-03-04T08:49:42.702Z,8.35
2023-03-04T08:52:30.443Z,9.02
2023-03-04T08:55:16.250Z,8.70
2023-03-04T08:58:01.954Z,8.48
2023-03-04T09:00:49.419Z,8.57
2023-03-04T09:03:35.811Z,9.98
2023-03-04T09:06:21.995Z,10.35
2023-03-04T09:09:08.007Z,12.90
2023-03-04T09:11:53.959Z,14.55
2023-03-04T09:14:39.716Z,13.40
2023-03-04T09:17:25.607Z,14.57
2023-03-04T09:20:13.184Z,13.88
2023-03-04T09:22:59.152Z,17.15
2023-03-04T09:25:47.498Z,16.20
2023-03-04T09:28:33.384Z,16.95
2023-03-04T09:31:19.882Z,21.80
2023-03-04T09:34:05.740Z,19.58
2023-03-04T09:36:51.660Z,21.00
2023-03-04T09:39:37.518Z,20.10
2023-03-04T09:42:27.709Z,18.63
2023-03-04T09:45:17.767Z,17.15
2023-03-04T09:48:04.210Z,16.92
2023-03-04T09:51:14.646Z,16.02
2023-03-04T09:54:09.784Z,17.48
2023-03-04T09:57:14.098Z,17.25
2023-03-04T10:00:08.141Z,18.40
2023-03-04T10:03:12.103Z,16.17
2023-03-04T10:06:02.733Z,20.38
2023-03-04T10:08:58.217Z,21.27
2023-03-04T10:12:10.302Z,18.10
2023-03-04T10:15:05.749Z,14.93
2023-03-04T10:17:56.988Z,18.25
2023-03-04T10:21:06.470Z,15.48
2023-03-04T10:23:54.374Z,14.85
2023-03-04T10:26:42.897Z,15.40
2023-03-04T10:29:30.665Z,16.23
2023-03-04T10:32:18.573Z,15.93
2023-03-04T10:35:09.306Z,15.85
2023-03-04T10:37:55.180Z,15.10
2023-03-04T10:40:42.157Z,15.52
2023-03-04T10:43:28.332Z,15.90
2023-03-04T10:46:15.703Z,15.77
2023-03-04T10:49:01.727Z,16.05
2023-03-04T10:51:52.895Z,16.17
2023-03-04T10:54:48.013Z,16.65
2023-03-04T10:57:39.147Z,15.35
2023-03-04T11:00:32.097Z,14.80
2023-03-04T11:06:12.211Z,13.48
2023-03-04T11:08:59.769Z,16.58
2023-03-04T11:11:46.184Z,17.30
2023-03-04T11:14:39.062Z,16.25
2023-03-04T11:17:27.953Z,15.98
2023-03-04T11:20:32.398Z,14.30
2023-03-04T11:23:25.460Z,11.43
2023-03-04T11:26:16.658Z,11.98
2023-03-04T11:29:13.319Z,11.80
2023-03-04T11:32:13.806Z,11.38
2023-03-04T11:35:38.404Z,15.85
2023-03-04T11:38:46.881Z,14.88
2023-03-04T11:41:39.993Z,10.48
2023-03-04T11:44:26.060Z,9.10
2023-03-04T11:47:56.139Z,9.70
2023-03-04T11:50:51.840Z,9.27
2023-03-04T11:53:48.041Z,12.38
2023-03-04T11:56:44.034Z,12.13
2023-03-04T11:59:57.766Z,12.27
2023-03-04T12:02:56.153Z,12.85
2023-03-04T12:06:10.141Z,12.63
2023-03-04T12:09:02.389Z,16.45
2023-03-04T12:12:03.856Z,15.57
2023-03-04T12:15:14.891Z,16.17
2023-03-04T12:18:12.226Z,15.07
2023-03-04T12:21:13.469Z,15.25
2023-03-04T12:23:59.455Z,13.55
2023-03-04T12:27:21.324Z,14.50
2023-03-04T12:30:20.973Z,13.82
2023-03-04T12:33:21.349Z,15.82
2023-03-04T12:36:32.651Z,15.02
2023-03-04T12:39:42.889Z,14.25
2023-03-04T12:42:36.545Z,13.55
2023-03-04T12:45:33.115Z,14.95
2023-03-04T12:48:33.519Z,13.70
2023-03-04T12:51:22.310Z,15.45
2023-03-04T12:54:18.328Z,13.18
2023-03-04T12:57:14.052Z,14.52
2023-03-04T13:00:19.105Z,12.98
2023-03-04T13:03:20.271Z,13.55
2023-03-04T13:06:16.079Z,13.55
2023-03-04T13:09:07.702Z,12.95
2023-03-04T13:12:16.105Z,15.80
2023-03-04T13:15:08.165Z,14.40
2023-03-04T13:17:56.476Z,13.43
2023-03-04T13:20:42.884Z,13.63
2023-03-04T13:23:29.629Z,14.25
2023-03-04T13:26:23.823Z,14.32
2023-03-04T13:29:29.758Z,12.35
2023-03-04T13:32:36.375Z,15.75
2023-03-04T13:35:47.358Z,14.10
2023-03-04T13:38:38.661Z,16.10
2023-03-04T13:41:31.402Z,14.15
2023-03-04T13:44:43.389Z,15.23
2023-03-04T13:47:41.522Z,15.52
2023-03-04T13:50:30.271Z,16.42
2023-03-04T13:53:39.893Z,15.18
2023-03-04T13:56:37.094Z,16.42
2023-03-04T13:59:35.776Z,15.32
2023-03-04T14:02:25.993Z,15.13
2023-03-04T14:05:12.122Z,18.08
2023-03-04T14:08:17.626Z,20.88
2023-03-04T14:11:04.003Z,18.80
2023-03-04T14:13:49.807Z,15.55
2023-03-04T14:16:41.331Z,15.90
2023-03-04T14:19:39.606Z,15.23
2023-03-04T14:22:40.335Z,15.65
2023-03-04T14:25:29.442Z,17.30
2023-03-04T14:28:17.494Z,17.27
2023-03-04T14:31:03.601Z,14.65
2023-03-04T14:34:01.958Z,16.38
2023-03-04T14:36:48.200Z,17.88
2023-03-04T14:39:37.130Z,18.55
2023-03-04T14:42:26.022Z,17.63
2023-03-04T14:45:14.950Z,16.67
2023-03-04T14:48:05.666Z,16.35
2023-03-04T14:50:55.912Z,16.83
2023-03-04T14:53:54.199Z,15.35
2023-03-04T14:56:44.204Z,15.07
2023-03-04T14:59:36.137Z,17.55
2023-03-04T15:02:31.270Z,16.98
2023-03-04T15:05:26.347Z,16.25
2023-03-04T15:08:36.779Z,17.17
2023-03-04T15:11:25.897Z,14.45
2023-03-04T15:14:50.155Z,16.50
2023-03-04T15:17:39.084Z,18.88
2023-03-04T15:20:27.608Z,16.35
2023-03-04T15:23:14.882Z,17.83
2023-03-04T15:26:02.729Z,18.05
2023-03-04T15:28:48.758Z,23.95
2023-03-04T15:31:34.632Z,20.92
2023-03-04T15:34:21.416Z,19.98
2023-03-04T15:37:09.365Z,21.73
2023-03-04T15:39:57.115Z,19.20
2023-03-04T15:42:42.882Z,20.48
2023-03-04T15:45:36.398Z,20.65
2023-03-04T15:48:22.418Z,18.92
2023-03-04T15:51:17.510Z,18.58
2023-03-04T15:54:03.576Z,17.85
2023-03-04T15:56:49.744Z,18.60
2023-03-04T15:59:35.681Z,19.42
2023-03-04T16:02:24.614Z,19.30
2023-03-04T16:05:10.924Z,18.65
2023-03-04T16:07:56.783Z,22.10
2023-03-04T16:10:43.953Z,21.02
2023-03-04T16:13:30.354Z,22.80
2023-03-04T16:16:16.960Z,25.55
2023-03-04T16:19:02.649Z,31.00
2023-03-04T16:21:48.710Z,24.67
2023-03-04T16:24:35.080Z,27.00
2023-03-04T16:27:22.362Z,23.80
2023-03-04T16:30:13.237Z,27.30
2023-03-04T16:32:59.169Z,32.75
2023-03-04T16:35:45.764Z,30.80
2023-03-04T16:38:34.534Z,30.67
2023-03-04T16:41:24.494Z,28.83
2023-03-04T16:44:14.152Z,29.48
2023-03-04T16:47:00.261Z,29.02
2023-03-04T16:49:47.792Z,29.75
2023-03-04T16:52:33.912Z,31.88
2023-03-04T16:55:23.243Z,32.78
2023-03-04T16:58:09.979Z,33.53
2023-03-04T17:00:58.560Z,35.55
2023-03-04T17:03:44.928Z,34.53
2023-03-04T17:06:31.092Z,34.60
2023-03-04T17:09:16.840Z,34.67
2023-03-04T17:12:02.823Z,35.38
2023-03-04T17:14:48.724Z,38.80
2023-03-04T17:17:34.492Z,36.53
2023-03-04T17:20:20.465Z,38.72
2023-03-04T17:23:06.741Z,34.10
2023-03-04T17:25:57.665Z,35.15
2023-03-04T17:28:43.648Z,37.28
2023-03-04T17:31:29.395Z,33.90
2023-03-04T17:34:15.261Z,30.42
2023-03-04T17:37:01.506Z,28.85
2023-03-04T17:39:47.432Z,34.75
2023-03-04T17:42:33.685Z,30.55
2023-03-04T17:45:19.628Z,33.28
2023-03-04T17:48:06.358Z,34.65
2023-03-04T17:50:52.758Z,35.38
2023-03-04T17:53:39.215Z,33.72
2023-03-04T17:56:30.083Z,32.75
2023-03-04T17:59:17.422Z,34.05
2023-03-04T18:02:05.054Z,35.38
2023-03-04T18:04:50.963Z,31.60
2023-03-04T18:07:36.840Z,31.35
2023-03-04T18:10:22.598Z,33.92
2023-03-04T18:13:08.739Z,32.10
2023-03-04T18:15:55.536Z,31.05
2023-03-04T18:18:41.701Z,28.13
2023-03-04T18:21:29.056Z,28.58
2023-03-04T18:24:15.159Z,28.70
2023-03-04T18:27:00.866Z,28.60
2023-03-04T18:29:47.043Z,28.42
2023-03-04T18:32:49.510Z,28.50
2023-03-04T18:35:37.462Z,26.58
2023-03-04T18:38:24.205Z,28.05
2023-03-04T18:41:12.496Z,26.67
2023-03-04T18:43:58.719Z,24.92
2023-03-04T18:46:47.638Z,25.48
2023-03-04T18:49:34.250Z,28.75
2023-03-04T18:52:20.235Z,24.92
2023-03-04T18:55:06.660Z,24.50
2023-03-04T18:57:55.039Z,26.60
2023-03-04T19:00:41.140Z,24.10
2023-03-04T19:03:32.171Z,24.63
2023-03-04T19:06:18.722Z,24.02
2023-03-04T19:09:05.933Z,20.23
2023-03-04T19:11:52.118Z,21.75
2023-03-04T19:14:38.116Z,23.08
2023-03-04T19:17:25.741Z,21.50
2023-03-04T19:20:14.901Z,23.38
2023-03-04T19:23:09.283Z,27.00
2023-03-04T19:25:55.723Z,29.77
2023-03-04T19:28:42.401Z,27.40
2023-03-04T19:31:28.576Z,26.80
2023-03-04T19:34:14.719Z,24.15
2023-03-04T19:37:00.567Z,22.45
2023-03-04T19:39:46.587Z,25.40
2023-03-04T19:42:34.197Z,25.33
2023-03-04T19:45:20.079Z,28.25
2023-03-04T19:48:06.371Z,27.17
2023-03-04T19:50:52.792Z,27.75
2023-03-04T19:53:38.881Z,23.25
2023-03-04T19:56:25.070Z,25.30
2023-03-04T19:59:11.293Z,22.95
2023-03-04T20:01:57.231Z,25.00
2023-03-04T20:04:43.187Z,23.20
2023-03-04T20:07:28.967Z,23.80
2023-03-04T20:10:15.679Z,23.73
2023-03-04T20:13:01.884Z,23.77
2023-03-04T20:15:47.865Z,24.02
2023-03-04T20:18:34.762Z,24.52
2023-03-04T20:21:21.274Z,24.95
2023-03-04T20:24:07.968Z,24.58
2023-03-04T20:26:54.173Z,26.75
2023-03-04T20:29:40.440Z,26.15
2023-03-04T20:32:26.718Z,25.80
2023-03-04T20:35:15.297Z,25.88
2023-03-04T20:38:01.370Z,25.73
2023-03-04T20:40:47.229Z,24.15
2023-03-04T20:43:33.513Z,26.02
2023-03-04T20:46:45.378Z,25.55
2023-03-04T20:49:31.379Z,27.77
2023-03-04T20:52:18.910Z,27.08
2023-03-04T20:55:05.629Z,24.50
2023-03-04T20:57:51.504Z,27.05
2023-03-04T21:00:38.411Z,26.40
2023-03-04T21:03:24.243Z,27.88
2023-03-04T21:06:13.187Z,27.98
2023-03-04T21:09:05.644Z,26.48
2023-03-04T21:11:51.972Z,30.83
2023-03-04T21:14:40.921Z,31.35
2023-03-04T21:17:26.971Z,29.90
2023-03-04T21:20:15.306Z,25.98
2023-03-04T21:23:01.437Z,28.67
2023-03-04T21:25:48.798Z,27.40
2023-03-04T21:28:34.544Z,24.98
2023-03-04T21:31:23.400Z,25.77
2023-03-04T21:34:23.378Z,24.10
2023-03-04T21:37:10.229Z,27.95
2023-03-04T21:39:56.521Z,24.55
2023-03-04T21:42:45.988Z,23.35
2023-03-04T21:45:33.091Z,24.92
2023-03-04T21:48:21.038Z,25.17
2023-03-04T21:51:08.574Z,25.60
2023-03-04T21:53:55.086Z,24.08
2023-03-04T21:56:42.066Z,24.70
2023-03-04T21:59:28.494Z,26.73
2023-03-04T22:02:19.550Z,25.38
2023-03-04T22:05:06.627Z,23.27
2023-03-04T22:07:52.680Z,25.88
2023-03-04T22:10:40.748Z,24.08
2023-03-04T22:13:26.811Z,21.80
2023-03-04T22:16:12.957Z,24.75
2023-03-04T22:18:59.522Z,22.67
2023-03-04T22:21:46.071Z,21.90
2023-03-04T22:24:32.632Z,22.55
2023-03-04T22:27:19.060Z,22.40
2023-03-04T22:30:08.848Z,22.33
2023-03-04T22:32:54.968Z,26.67
2023-03-04T22:35:41.494Z,23.02
2023-03-04T22:38:28.215Z,21.92
2023-03-04T22:41:16.909Z,23.08
2023-03-04T22:44:04.805Z,22.23
2023-03-04T22:46:50.719Z,22.10
2023-03-04T22:49:37.868Z,24.13
2023-03-04T22:52:23.928Z,22.45
2023-03-04T22:55:12.069Z,22.45
2023-03-04T22:57:58.080Z,24.23
2023-03-04T23:00:44.022Z,22.58
2023-03-04T23:03:33.062Z,26.35
2023-03-04T23:06:26.228Z,23.88
2023-03-04T23:09:12.520Z,23.88
2023-03-04T23:11:58.296Z,24.77
2023-03-04T23:14:44.908Z,21.55
2023-03-04T23:17:31.008Z,22.45
2023-03-04T23:20:18.979Z,21.65
2023-03-04T23:23:04.902Z,22.67
2023-03-04T23:25:52.137Z,22.77
2023-03-04T23:28:37.924Z,22.55
2023-03-04T23:31:24.342Z,21.45
2023-03-04T23:34:11.405Z,21.92
2023-03-04T23:36:57.420Z,20.77
2023-03-04T23:39:43.333Z,21.58
2023-03-04T23:42:29.084Z,20.33
2023-03-04T23:45:15.109Z,21.58
2023-03-04T23:48:01.104Z,21.27
2023-03-04T23:50:52.088Z,22.88
2023-03-04T23:53:39.190Z,22.70
2023-03-04T23:56:27.822Z,23.35
2023-03-04T23:59:13.859Z,22.85
